EDAC/ADC METAR and TAF weather

Enter ICAO airport designator
Station Type Date Time Source
EDAC METAR 2018/12/10 17:20 UTC NOAA

EDAC 101720Z AUTO 25010KT 9999 // FEW041/// BKN130/// 03/M01 Q1014


Station Type Date Time Source
EDAC Decoded METAR 2018/12/10 17:20 UTC NOAA

Altenburg Nobitz, Germany (EDAC) 50-58N 012-30E
Dec 10, 2018 - 12:20 PM EST / 2018.12.10 1720 UTC
Wind: from the WSW (250 degrees) at 12 MPH (10 KT):0
Visibility: greater than 7 mile(s):0
Sky conditions: mostly cloudy
Temperature: 37 F (3 C)
Dew Point: 30 F (-1 C)
Relative Humidity: 74%
Pressure (altimeter): 29.94 in. Hg (1014 hPa)
ob: EDAC 101720Z AUTO 25010KT 9999 // FEW041/// BKN130/// 03/M01 Q1014
cycle: 17

Station Type Date Time Source
EDAC TAF UTC NOAA

Error!


Example: see airport list